Content
SEND FEEDBACK

Daily
Averages
Monthly
Summary
Turkmenistan

ASHGABAT, TURKMENISTAN


Home > Asia > Turkmenistan
Elevation: 236 meters     Latitude: 37 58N     Longitude: 058 20E

WEATHER
 
SELECT A DAY
Number of Records: 180,375;   Date Range: 3/15/97 - 9/29/14
 
SHARE

PRINT THIS DATA

[ ← Previous Day ]
WEATHER ALMANAC - 27 APRIL, 2013
[ Next Day → ]
[ °F ]   °C
Weather ElementAverageHighLow
Temperature16.5 °C21 °C (11:00 am)11 °C (4:00 am)
Dewpoint4.9 °C8.3 °C (2:00 am)1 °C (10:00 am)
Humidity46.8 %77 % (2:00 am)20 % (11:00 am)
Barometer1021 hPa1024.7 hPa (11:00 pm)1015.2 hPa (2:00 am)
Wind Speed21.4 km/h43.1 km/h (8:30 am)
Wind Gust57.6 km/h (8:00 am)
Weather ElementAverage
Visibility10 km
Wind DirectionW (270.9 °)

Weather ElementTotal
Precipitation---
Heating Degree Days2.3 (Base 18.3)
Growing Degree Days6 (Base 10)
Averaged from 34 records on 27 April, 2013
WEATHER CONDITIONS BREAKOUT
WIND DIRECTION BREAKOUT
WEATHER BY HOUR - 27 APRIL, 2013
[ °F ]   °C
Local TimeTemperatureDewpointHumidityBarometerVisibilityWind DirectionWind SpeedGust SpeedPrecipitationEventsConditions
1:00 AM13 °C8 °C72 %1016.3 hPa10 kmSouth (170°)7.2 km/hClear
2:00 AM12.8 °C8.3 °C65 %1015.6 hPa9.7 kmSSE (150°)10.8 km/h
2:00 AM12 °C8 °C77 %1015.2 hPa10 kmSE (140°)10.8 km/hClear
3:00 AM12 °C8 °C77 %1015.2 hPa10 kmWest (260°)10.8 km/hClear
4:00 AM11 °C7 °C76 %1015.2 hPa10 kmWest (260°)7.2 km/hClear
5:00 AM11.1 °C7.8 °C74 %1016.6 hPa9.7 kmWNW (290°)18 km/h
5:00 AM11 °C7 °C76 %1016.3 hPa10 kmWNW (300°)18 km/hClear
6:00 AM15 °C5 °C51 %1017.3 hPa10 kmWest (280°)32.3 km/hScattered Clouds
7:00 AM16 °C4 °C45 %1017.9 hPa10 kmWest (280°)28.8 km/hMostly Cloudy
8:00 AM16.1 °C2.2 °C28 %1019.6 hPa9.7 kmWest (280°)39.6 km/hScattered Clouds
8:00 AM16 °C3 °C42 %1019 hPa10 kmWNW (290°)39.6 km/h57.6 km/hMostly Cloudy
8:30 AM17 °C3 °C39 %1020 hPa10 kmWNW (290°)43.1 km/hMostly Cloudy
9:00 AM18 °C2 °C34 %1020 hPa10 kmWNW (290°)36 km/hMostly Cloudy
10:00 AM19 °C1 °C30 %1021 hPa10 kmWNW (300°)32.3 km/hScattered Clouds
11:00 AM20 °C2.2 °C20 %1022.4 hPa9.7 kmWNW (290°)28.8 km/hScattered Clouds
11:00 AM21 °C2 °C28 %1022 hPa10 kmWNW (300°)28.8 km/hMostly Cloudy
12:00 PM21 °C1 °C27 %1023 hPa10 kmNW (310°)32.3 km/hMostly Cloudy
1:00 PM21 °C2 °C28 %1023 hPa10 kmWNW (300°)32.3 km/hOvercast
1:30 PM21 °C3 °C31 %1023 hPa10 kmNW (320°)25.3 km/h43.1 km/hOvercast
2:00 PM20.6 °C4.4 °C23 %1023 hPa9.7 kmNW (310°)32.3 km/hOvercast
2:00 PM20 °C4 °C35 %1023 hPa10 kmNW (310°)28.8 km/h46.8 km/hOvercast
2:30 PM19 °C4 °C37 %1023 hPa10 kmNW (310°)28.8 km/hOvercast
3:00 PM19 °C3 °C35 %1023 hPa10 kmNW (310°)28.8 km/hOvercast
4:00 PM17 °C5 °C45 %1023 hPa10 kmNW (310°)25.3 km/hOvercast
5:00 PM16.7 °C6.1 °C38 %1023.4 hPa9.7 kmWNW (290°)10.8 km/hOvercast
5:00 PM17 °C5 °C45 %1023 hPa10 kmWNW (290°)10.8 km/hOvercast
6:00 PM18 °C6 °C45 %1023 hPa10 kmWest (270°)7.2 km/hMostly Cloudy
7:00 PM18 °C5 °C42 %1023 hPa10 kmWest (270°)10.8 km/hMostly Cloudy
8:00 PM16.1 °C8.3 °C50 %1023.4 hPa9.7 kmWSW (240°)10.8 km/hScattered Clouds
8:00 PM17 °C6 °C48 %1023 hPa10 kmWSW (240°)10.8 km/hMostly Cloudy
9:00 PM16 °C6 °C52 %1023 hPa10 kmSW (230°)7.2 km/hScattered Clouds
10:00 PM15 °C7 °C59 %1024 hPa10 kmSW (220°)10.8 km/hScattered Clouds
11:00 PM13.9 °C7.2 °C53 %1024.7 hPa9.7 kmWSW (250°)10.8 km/hPartly Cloudy
11:00 PM14 °C7 °C63 %1024 hPa10 kmWest (260°)10.8 km/hScattered Clouds
Hourly data recorded from UTAA, located 0 kilometers away from Ashgabat, Turkmenistan







STORIES FROM OUR PARTNERS